Time;durP1;ratioP1;P1;durP2;ratioP2;P2;SDS_P1;SDS_P2;PMS_P1;PMS_P2;Temp;Humidity;BMP_temperature;BMP_pressure;BME280_temperature;BME280_humidity;BME280_pressure;Samples;Min_cycle;Max_cycle;Signal;HPM_P1;HPM_P2
2022/01/03 00:02:16;;;;;;;;;;;;;;;;;;6188365;23;19915;-76
2022/01/03 00:04:42;;;;;;;;;;;;;;;;;;6215076;23;20289;-76
2022/01/03 00:07:08;;;;;;;;;;;;;;;;;;6215107;23;19915;-76
2022/01/03 00:09:34;;;;;;;;;;;;;;;;;;6214189;23;19912;-76
2022/01/03 00:12:00;;;;;;;;;;;;;;;;;;6214909;23;19904;-76
2022/01/03 00:14:26;;;;;;;;;;;;;;;;;;6215398;23;19994;-76
2022/01/03 00:16:52;;;;;;;;;;;;;;;;;;6215416;23;19904;-76
2022/01/03 00:19:18;;;;;;;;;;;;;;;;;;6214744;23;20330;-75
2022/01/03 00:21:44;;;;;;;;;;;;;;;;;;6214794;23;19908;-75
2022/01/03 00:24:10;;;;;;;;;;;;;;;;;;6214739;23;19911;-76
2022/01/03 00:26:36;;;;;;;;;;;;;;;;;;6214613;23;19908;-76
2022/01/03 00:29:02;;;;;;;;;;;;;;;;;;6215778;23;19911;-76
2022/01/03 00:31:27;;;;;;;;;;;;;;;;;;6214743;23;19903;-76
2022/01/03 00:33:54;;;;;;;;;;;;;;;;;;6214643;23;19911;-76
2022/01/03 00:36:20;;;;;;;;;;;;;;;;;;6187677;23;19987;-76
2022/01/03 00:38:46;;;;;;;;;;;;;;;;;;6214478;23;19935;-76
2022/01/03 00:41:12;;;;;;;;;;;;;;;;;;6215278;23;19904;-76
2022/01/03 00:43:38;;;;;;;;;;;;;;;;;;6214872;23;20234;-76
2022/01/03 00:46:03;;;;;;;;;;;;;;;;;;6214436;23;19915;-76
2022/01/03 00:48:29;;;;;;;;;;;;;;;;;;6215898;23;19915;-76
2022/01/03 00:50:55;;;;;;;;;;;;;;;;;;6189574;23;20314;-75
2022/01/03 00:53:21;;;;;;;;;;;;;;;;;;6216234;23;19908;-76
2022/01/03 00:55:47;;;;;;;;;;;;;;;;;;6216683;23;19911;-75
2022/01/03 00:58:13;;;;;;;;;;;;;;;;;;6215953;23;20288;-75
2022/01/03 01:00:39;;;;;;;;;;;;;;;;;;6216774;23;19903;-76
2022/01/03 01:03:06;;;;;;;;;;;;;;;;;;6216724;23;20353;-76
2022/01/03 01:05:32;;;;;;;;;;;;;;;;;;6215766;23;20694;-76
2022/01/03 01:07:58;;;;;;;;;;;;;;;;;;6216613;23;19904;-76
2022/01/03 01:10:24;;;;;;;;;;;;;;;;;;6216338;23;19920;-76
2022/01/03 01:12:50;;;;;;;;;;;;;;;;;;6216417;23;19904;-76
2022/01/03 01:15:16;;;;;;;;;;;;;;;;;;6216555;23;19908;-76
2022/01/03 01:17:42;;;;;;;;;;;;;;;;;;6216722;23;19926;-75
2022/01/03 01:20:09;;;;;;;;;;;;;;;;;;6189158;23;19904;-76
2022/01/03 01:22:34;;;;;;;;;;;;;;;;;;6216288;23;19904;-76
2022/01/03 01:27:49;;;;;;;;;;;;;;;;;;6216347;23;19939;-76
2022/01/03 01:30:15;;;;;;;;;;;;;;;;;;6216211;23;19931;-75
2022/01/03 01:32:41;;;;;;;;;;;;;;;;;;6216829;23;19911;-75
2022/01/03 01:35:06;;;;;;;;;;;;;;;;;;6215961;23;19911;-75
2022/01/03 01:37:32;;;;;;;;;;;;;;;;;;6216183;23;19904;-76
2022/01/03 01:39:58;;;;;;;;;;;;;;;;;;6216462;23;19904;-75
2022/01/03 01:42:24;;;;;;;;;;;;;;;;;;6215942;23;19908;-76
2022/01/03 01:44:50;;;;;;;;;;;;;;;;;;6216269;23;19903;-76
2022/01/03 01:47:16;;;;;;;;;;;;;;;;;;6216153;23;19955;-75
2022/01/03 01:49:43;;;;;;;;;;;;;;;;;;6215476;23;20246;-76
2022/01/03 01:52:09;;;;;;;;;;;;;;;;;;6216467;23;19951;-76
2022/01/03 01:54:36;;;;;;;;;;;;;;;;;;6215862;23;20322;-76
2022/01/03 01:57:01;;;;;;;;;;;;;;;;;;6216326;23;19984;-76
2022/01/03 01:59:29;;;;;;;;;;;;;;;;;;6215843;23;19936;-76
2022/01/03 02:01:55;;;;;;;;;;;;;;;;;;6216213;23;19911;-76
2022/01/03 02:04:22;;;;;;;;;;;;;;;;;;6215190;23;19904;-76
2022/01/03 02:06:48;;;;;;;;;;;;;;;;;;6215797;23;19908;-76
2022/01/03 02:09:14;;;;;;;;;;;;;;;;;;6215551;23;19990;-76
2022/01/03 02:11:40;;;;;;;;;;;;;;;;;;6215670;23;19915;-76
2022/01/03 02:14:05;;;;;;;;;;;;;;;;;;6216270;23;19951;-75
2022/01/03 02:16:31;;;;;;;;;;;;;;;;;;6215985;23;19904;-75
2022/01/03 02:18:57;;;;;;;;;;;;;;;;;;6215250;23;20219;-76
2022/01/03 02:21:23;;;;;;;;;;;;;;;;;;6216054;23;19904;-76
2022/01/03 02:23:49;;;;;;;;;;;;;;;;;;6215853;23;19910;-76
2022/01/03 02:26:15;;;;;;;;;;;;;;;;;;6215935;23;19974;-76
2022/01/03 02:28:41;;;;;;;;;;;;;;;;;;6216053;23;19911;-75
2022/01/03 02:31:07;;;;;;;;;;;;;;;;;;6189318;23;20337;-76
2022/01/03 02:33:33;;;;;;;;;;;;;;;;;;6214916;23;19971;-76
2022/01/03 02:35:59;;;;;;;;;;;;;;;;;;6215838;23;20318;-76
2022/01/03 02:38:25;;;;;;;;;;;;;;;;;;6215682;23;19914;-76
2022/01/03 02:40:50;;;;;;;;;;;;;;;;;;6216224;23;19943;-76
2022/01/03 02:43:16;;;;;;;;;;;;;;;;;;6215835;23;20019;-75
2022/01/03 02:45:42;;;;;;;;;;;;;;;;;;6215109;23;19908;-75
2022/01/03 02:48:09;;;;;;;;;;;;;;;;;;6215691;23;19904;-75
2022/01/03 02:50:36;;;;;;;;;;;;;;;;;;6215117;23;19900;-75
2022/01/03 02:53:01;;;;;;;;;;;;;;;;;;6215456;23;20231;-76
2022/01/03 02:55:27;;;;;;;;;;;;;;;;;;6215742;23;19907;-76
2022/01/03 02:57:53;;;;;;;;;;;;;;;;;;6215446;23;19915;-76
2022/01/03 03:00:19;;;;;;;;;;;;;;;;;;6215397;23;19904;-76
2022/01/03 03:02:45;;;;;;;;;;;;;;;;;;6215329;23;20244;-75
2022/01/03 03:05:11;;;;;;;;;;;;;;;;;;6215250;23;19910;-75
2022/01/03 03:07:37;;;;;;;;;;;;;;;;;;6215114;23;19911;-76
2022/01/03 03:10:03;;;;;;;;;;;;;;;;;;6215182;23;19923;-76
2022/01/03 03:12:29;;;;;;;;;;;;;;;;;;6215181;23;19910;-75
2022/01/03 03:14:55;;;;;;;;;;;;;;;;;;6214484;23;20330;-76
2022/01/03 03:17:21;;;;;;;;;;;;;;;;;;6215226;23;19944;-76
2022/01/03 03:19:47;;;;;;;;;;;;;;;;;;6214545;23;19908;-75
2022/01/03 03:22:13;;;;;;;;;;;;;;;;;;6215856;23;19904;-76
2022/01/03 03:24:39;;;;;;;;;;;;;;;;;;6215074;23;20353;-75
2022/01/03 03:27:04;;;;;;;;;;;;;;;;;;6214801;23;19912;-76
2022/01/03 03:29:30;;;;;;;;;;;;;;;;;;6215384;23;19908;-76
2022/01/03 03:31:56;;;;;;;;;;;;;;;;;;6215282;23;19951;-76
2022/01/03 03:34:22;;;;;;;;;;;;;;;;;;6215187;23;19904;-76
2022/01/03 03:36:48;;;;;;;;;;;;;;;;;;6215389;23;20246;-76
2022/01/03 03:39:14;;;;;;;;;;;;;;;;;;6215361;23;19938;-76
2022/01/03 03:41:40;;;;;;;;;;;;;;;;;;6214615;23;20346;-76
2022/01/03 03:44:06;;;;;;;;;;;;;;;;;;6214963;23;20360;-76
2022/01/03 03:46:32;;;;;;;;;;;;;;;;;;6215169;23;19908;-75
2022/01/03 03:48:58;;;;;;;;;;;;;;;;;;6215453;23;19904;-75
2022/01/03 03:51:24;;;;;;;;;;;;;;;;;;6215213;23;20388;-75
2022/01/03 03:53:50;;;;;;;;;;;;;;;;;;6214738;23;19904;-76
2022/01/03 03:56:16;;;;;;;;;;;;;;;;;;6214813;23;19982;-76
2022/01/03 03:58:41;;;;;;;;;;;;;;;;;;6215044;23;19904;-76
2022/01/03 04:01:07;;;;;;;;;;;;;;;;;;6188188;23;19930;-75
2022/01/03 04:03:33;;;;;;;;;;;;;;;;;;6188169;23;19904;-76
2022/01/03 04:06:00;;;;;;;;;;;;;;;;;;6214671;23;19911;-75
2022/01/03 04:08:26;;;;;;;;;;;;;;;;;;6214950;23;20286;-75
2022/01/03 04:10:52;;;;;;;;;;;;;;;;;;6215138;23;19923;-76
2022/01/03 04:13:18;;;;;;;;;;;;;;;;;;6214974;23;19904;-75
2022/01/03 04:15:43;;;;;;;;;;;;;;;;;;6214774;23;19905;-75
2022/01/03 04:18:10;;;;;;;;;;;;;;;;;;6187794;23;19911;-75
2022/01/03 04:20:36;;;;;;;;;;;;;;;;;;6215050;23;19970;-75
2022/01/03 04:23:02;;;;;;;;;;;;;;;;;;6215753;23;20369;-75
2022/01/03 04:25:28;;;;;;;;;;;;;;;;;;6217160;23;19908;-75
2022/01/03 04:27:54;;;;;;;;;;;;;;;;;;6216682;23;19915;-76
2022/01/03 04:30:20;;;;;;;;;;;;;;;;;;6217217;23;19908;-76
2022/01/03 04:32:45;;;;;;;;;;;;;;;;;;6216751;23;19911;-75
2022/01/03 04:35:11;;;;;;;;;;;;;;;;;;6216974;23;19904;-76
2022/01/03 04:37:37;;;;;;;;;;;;;;;;;;6216853;23;20530;-75
2022/01/03 04:40:03;;;;;;;;;;;;;;;;;;6217382;23;19910;-75
2022/01/03 04:42:29;;;;;;;;;;;;;;;;;;6216505;23;19907;-75
2022/01/03 04:44:56;;;;;;;;;;;;;;;;;;6216588;23;20356;-75
2022/01/03 04:47:22;;;;;;;;;;;;;;;;;;6216118;23;19915;-76
2022/01/03 04:49:48;;;;;;;;;;;;;;;;;;6216466;23;20389;-76
2022/01/03 04:52:14;;;;;;;;;;;;;;;;;;6216454;23;19983;-76
2022/01/03 04:54:40;;;;;;;;;;;;;;;;;;6216596;23;19924;-76
2022/01/03 04:57:06;;;;;;;;;;;;;;;;;;6188721;23;20368;-76
2022/01/03 04:59:32;;;;;;;;;;;;;;;;;;6216405;23;19911;-76
2022/01/03 05:02:00;;;;;;;;;;;;;;;;;;6215982;23;19964;-75
2022/01/03 05:04:25;;;;;;;;;;;;;;;;;;6216989;23;19915;-75
2022/01/03 05:06:51;;;;;;;;;;;;;;;;;;6189436;23;19908;-75
2022/01/03 05:09:17;;;;;;;;;;;;;;;;;;6215996;23;19926;-75
2022/01/03 05:11:43;;;;;;;;;;;;;;;;;;6216795;23;19908;-75
2022/01/03 05:14:09;;;;;;;;;;;;;;;;;;6216234;23;19904;-75
2022/01/03 05:16:35;;;;;;;;;;;;;;;;;;6216719;23;20337;-75
2022/01/03 05:19:01;;;;;;;;;;;;;;;;;;6216209;23;19904;-76
2022/01/03 05:21:27;;;;;;;;;;;;;;;;;;6216585;23;20246;-76
2022/01/03 05:23:53;;;;;;;;;;;;;;;;;;6216122;23;19908;-76
2022/01/03 05:26:19;;;;;;;;;;;;;;;;;;6216104;23;19908;-76
2022/01/03 05:28:47;;;;;;;;;;;;;;;;;;6216105;23;19915;-76
2022/01/03 05:31:13;;;;;;;;;;;;;;;;;;6216011;23;19932;-75
2022/01/03 05:33:39;;;;;;;;;;;;;;;;;;6216405;23;19911;-75
2022/01/03 05:36:05;;;;;;;;;;;;;;;;;;6188874;23;19904;-75
2022/01/03 05:38:31;;;;;;;;;;;;;;;;;;6216398;23;20341;-75
2022/01/03 05:40:57;;;;;;;;;;;;;;;;;;6215239;23;19911;-76
2022/01/03 05:43:23;;;;;;;;;;;;;;;;;;6189320;23;19904;-75
2022/01/03 05:45:49;;;;;;;;;;;;;;;;;;6215389;23;19986;-75
2022/01/03 05:48:15;;;;;;;;;;;;;;;;;;6189044;23;20289;-78
2022/01/03 05:50:41;;;;;;;;;;;;;;;;;;6216109;23;19975;-74
2022/01/03 05:53:06;;;;;;;;;;;;;;;;;;6215925;23;19987;-75
2022/01/03 05:55:32;;;;;;;;;;;;;;;;;;6215141;23;19978;-74
2022/01/03 05:57:58;;;;;;;;;;;;;;;;;;6189438;23;19927;-74
2022/01/03 06:00:26;;;;;;;;;;;;;;;;;;6215367;23;19911;-74
2022/01/03 06:02:55;;;;;;;;;;;;;;;;;;6215680;23;19928;-74
2022/01/03 06:08:02;;;;;;;;;;;;;;;;;;6215868;23;19939;-72
2022/01/03 06:10:28;;;;;;;;;;;;;;;;;;6214879;23;19923;-74
2022/01/03 06:12:54;;;;;;;;;;;;;;;;;;6215563;23;19908;-74
2022/01/03 06:15:23;;;;;;;;;;;;;;;;;;6215559;23;20242;-74
2022/01/03 06:17:49;;;;;;;;;;;;;;;;;;6215847;23;19904;-74
2022/01/03 06:20:15;;;;;;;;;;;;;;;;;;6216444;23;19904;-76
2022/01/03 06:22:41;;;;;;;;;;;;;;;;;;6220467;23;20273;-77
2022/01/03 06:25:07;;;;;;;;;;;;;;;;;;6214941;23;20215;-72
2022/01/03 06:27:33;;;;;;;;;;;;;;;;;;6215153;23;19904;-74
2022/01/03 06:29:59;;;;;;;;;;;;;;;;;;6215917;23;19979;-74
2022/01/03 06:32:25;;;;;;;;;;;;;;;;;;6214898;23;20317;-74
2022/01/03 06:34:52;;;;;;;;;;;;;;;;;;6188561;23;19939;-74
2022/01/03 06:37:18;;;;;;;;;;;;;;;;;;6215067;23;19904;-74
2022/01/03 06:39:44;;;;;;;;;;;;;;;;;;6215851;23;19912;-73
2022/01/03 06:42:10;;;;;;;;;;;;;;;;;;6215517;23;20338;-73
2022/01/03 06:44:36;;;;;;;;;;;;;;;;;;6215776;23;20027;-74
2022/01/03 06:47:02;;;;;;;;;;;;;;;;;;6215715;23;20002;-74
2022/01/03 06:49:28;;;;;;;;;;;;;;;;;;6215715;23;19910;-74
2022/01/03 06:51:54;;;;;;;;;;;;;;;;;;6215868;23;19904;-74
2022/01/03 06:54:20;;;;;;;;;;;;;;;;;;6215085;23;20221;-74
2022/01/03 06:56:45;;;;;;;;;;;;;;;;;;6215254;23;19904;-74
2022/01/03 06:59:11;;;;;;;;;;;;;;;;;;6189048;23;19911;-74
2022/01/03 07:01:37;;;;;;;;;;;;;;;;;;6214711;23;19904;-74
2022/01/03 07:04:03;;;;;;;;;;;;;;;;;;6188518;23;19912;-74
2022/01/03 07:06:30;;;;;;;;;;;;;;;;;;6215959;23;19917;-73
2022/01/03 07:08:56;;;;;;;;;;;;;;;;;;6215357;23;19935;-74
2022/01/03 07:11:22;;;;;;;;;;;;;;;;;;6215022;23;19916;-74
2022/01/03 07:13:51;;;;;;;;;;;;;;;;;;6215388;23;19904;-74
2022/01/03 07:19:06;;;;;;;;;;;;;;;;;;6215596;23;19915;-74
2022/01/03 07:21:31;;;;;;;;;;;;;;;;;;6215110;23;19904;-74
2022/01/03 07:23:57;;;;;;;;;;;;;;;;;;6215935;23;20223;-74
2022/01/03 07:26:23;;;;;;;;;;;;;;;;;;6214720;23;19932;-72
2022/01/03 07:28:49;;;;;;;;;;;;;;;;;;6215286;23;19904;-73
2022/01/03 07:31:15;;;;;;;;;;;;;;;;;;6215253;23;20322;-73
2022/01/03 07:33:42;;;;;;;;;;;;;;;;;;6215248;23;20368;-73
2022/01/03 07:36:08;;;;;;;;;;;;;;;;;;6214612;23;19900;-73
2022/01/03 07:38:34;;;;;;;;;;;;;;;;;;6215630;23;19974;-73
2022/01/03 07:41:00;;;;;;;;;;;;;;;;;;6215250;23;20322;-72
2022/01/03 07:43:25;;;;;;;;;;;;;;;;;;6188446;23;19978;-73
2022/01/03 07:45:51;;;;;;;;;;;;;;;;;;6215030;23;19966;-73
2022/01/03 07:48:17;;;;;;;;;;;;;;;;;;6215252;23;19912;-73
2022/01/03 07:50:43;;;;;;;;;;;;;;;;;;6187515;23;19904;-73
2022/01/03 07:53:09;;;;;;;;;;;;;;;;;;6214970;23;20372;-73
2022/01/03 07:55:35;;;;;;;;;;;;;;;;;;6214397;23;19990;-73
2022/01/03 07:58:03;;;;;;;;;;;;;;;;;;6189788;23;19904;-73
2022/01/03 08:00:28;;;;;;;;;;;;;;;;;;6216701;23;19907;-73
2022/01/03 08:02:54;;;;;;;;;;;;;;;;;;6217013;23;20261;-73
2022/01/03 08:05:20;;;;;;;;;;;;;;;;;;6216343;23;19904;-73
2022/01/03 08:07:46;;;;;;;;;;;;;;;;;;6179158;23;19908;-73
2022/01/03 08:10:12;;;;;;;;;;;;;;;;;;6212318;23;19916;-73
2022/01/03 08:12:39;;;;;;;;;;;;;;;;;;6213736;23;19911;-73
2022/01/03 08:15:05;;;;;;;;;;;;;;;;;;6214624;23;19915;-73
2022/01/03 08:17:31;;;;;;;;;;;;;;;;;;6213139;23;19904;-73
2022/01/03 08:19:57;;;;;;;;;;;;;;;;;;6216127;23;19904;-73
2022/01/03 08:22:23;;;;;;;;;;;;;;;;;;6213020;23;19958;-73
2022/01/03 08:24:48;;;;;;;;;;;;;;;;;;6215554;23;19947;-73
2022/01/03 08:27:14;;;;;;;;;;;;;;;;;;6214100;23;20003;-73
2022/01/03 08:29:40;;;;;;;;;;;;;;;;;;6214416;23;20012;-73
2022/01/03 08:32:06;;;;;;;;;;;;;;;;;;6215420;23;19986;-73
2022/01/03 08:34:32;;;;;;;;;;;;;;;;;;6214950;23;19910;-73
2022/01/03 08:37:00;;;;;;;;;;;;;;;;;;6213633;23;20401;-72
2022/01/03 08:39:26;;;;;;;;;;;;;;;;;;6214991;23;19904;-73
2022/01/03 08:41:51;;;;;;;;;;;;;;;;;;6215214;23;19927;-72
2022/01/03 08:44:18;;;;;;;;;;;;;;;;;;6189284;23;19911;-72
2022/01/03 08:46:46;;;;;;;;;;;;;;;;;;6213373;23;19911;-72
2022/01/03 08:49:12;;;;;;;;;;;;;;;;;;6189373;23;19911;-74
2022/01/03 08:51:38;;;;;;;;;;;;;;;;;;6187371;23;19904;-72
2022/01/03 08:54:04;;;;;;;;;;;;;;;;;;6216397;23;20380;-74
2022/01/03 08:56:30;;;;;;;;;;;;;;;;;;6213101;23;19908;-74
2022/01/03 08:58:55;;;;;;;;;;;;;;;;;;6215385;23;19939;-74
2022/01/03 09:01:21;;;;;;;;;;;;;;;;;;6214543;23;19908;-74
2022/01/03 09:03:50;;;;;;;;;;;;;;;;;;6189311;23;19914;-74
2022/01/03 09:06:16;;;;;;;;;;;;;;;;;;6215931;23;19912;-74
2022/01/03 09:08:42;;;;;;;;;;;;;;;;;;6211869;23;19991;-74
2022/01/03 09:11:08;;;;;;;;;;;;;;;;;;6215635;23;19938;-74
2022/01/03 09:13:35;;;;;;;;;;;;;;;;;;6213841;23;19908;-72
2022/01/03 09:16:04;;;;;;;;;;;;;;;;;;6215238;23;19911;-74
2022/01/03 09:18:31;;;;;;;;;;;;;;;;;;6211095;23;19934;-74
2022/01/03 09:20:57;;;;;;;;;;;;;;;;;;6215627;23;19908;-74
2022/01/03 09:23:27;;;;;;;;;;;;;;;;;;6213782;23;20286;-74
2022/01/03 09:28:53;;;;;;;;;;;;;;;;;;6213042;23;20328;-74
2022/01/03 09:31:19;;;;;;;;;;;;;;;;;;6215666;23;19936;-72
2022/01/03 09:33:45;;;;;;;;;;;;;;;;;;6212852;23;19908;-74
2022/01/03 09:36:11;;;;;;;;;;;;;;;;;;6215349;23;20238;-74
2022/01/03 09:38:38;;;;;;;;;;;;;;;;;;6213323;23;19915;-74
2022/01/03 09:41:04;;;;;;;;;;;;;;;;;;6214889;23;19911;-74
2022/01/03 09:43:30;;;;;;;;;;;;;;;;;;6215342;23;19908;-74
2022/01/03 09:45:56;;;;;;;;;;;;;;;;;;6213211;23;19908;-74
2022/01/03 09:48:22;;;;;;;;;;;;;;;;;;6212835;23;20246;-74
2022/01/03 09:50:48;;;;;;;;;;;;;;;;;;6211770;23;19900;-74
2022/01/03 09:53:14;;;;;;;;;;;;;;;;;;6214592;23;20211;-74
2022/01/03 09:55:40;;;;;;;;;;;;;;;;;;6212743;23;19904;-74
2022/01/03 09:58:06;;;;;;;;;;;;;;;;;;6215593;23;20271;-74
2022/01/03 10:00:31;;;;;;;;;;;;;;;;;;6213157;23;19904;-74
2022/01/03 10:02:58;;;;;;;;;;;;;;;;;;6214365;23;19903;-74
2022/01/03 10:05:24;;;;;;;;;;;;;;;;;;6213389;23;19904;-74
2022/01/03 10:07:50;;;;;;;;;;;;;;;;;;6215299;23;19911;-74
2022/01/03 10:10:16;;;;;;;;;;;;;;;;;;6213343;23;19920;-74
2022/01/03 10:12:42;;;;;;;;;;;;;;;;;;6215223;23;19904;-74
2022/01/03 10:15:08;;;;;;;;;;;;;;;;;;6215047;23;20312;-74
2022/01/03 10:17:35;;;;;;;;;;;;;;;;;;6212964;23;19904;-74
2022/01/03 10:20:00;;;;;;;;;;;;;;;;;;6214476;23;19904;-74
2022/01/03 10:22:26;;;;;;;;;;;;;;;;;;6212441;23;19910;-74
2022/01/03 10:24:52;;;;;;;;;;;;;;;;;;6215350;23;19969;-83
2022/01/03 10:27:18;;;;;;;;;;;;;;;;;;6213883;23;19919;-80
2022/01/03 10:29:44;;;;;;;;;;;;;;;;;;6214812;23;19962;-79
2022/01/03 10:32:10;;;;;;;;;;;;;;;;;;6187151;23;19955;-80
2022/01/03 10:34:36;;;;;;;;;;;;;;;;;;6215197;23;20242;-80
2022/01/03 10:37:02;;;;;;;;;;;;;;;;;;6187027;23;19904;-84
2022/01/03 10:39:28;;;;;;;;;;;;;;;;;;6215751;23;19911;-80
2022/01/03 10:41:54;;;;;;;;;;;;;;;;;;6213915;23;20349;-79
2022/01/03 10:44:20;;;;;;;;;;;;;;;;;;6215121;23;19908;-80
2022/01/03 10:46:49;;;;;;;;;;;;;;;;;;6184548;23;19908;-79
2022/01/03 10:49:16;;;;;;;;;;;;;;;;;;6214447;23;19992;-79
2022/01/03 10:51:42;;;;;;;;;;;;;;;;;;6213286;23;20344;-79
2022/01/03 10:54:08;;;;;;;;;;;;;;;;;;6215321;23;19928;-80
2022/01/03 10:56:34;;;;;;;;;;;;;;;;;;6213685;23;20234;-79
2022/01/03 10:59:00;;;;;;;;;;;;;;;;;;6214954;23;19974;-79
2022/01/03 11:01:26;;;;;;;;;;;;;;;;;;6214720;23;19979;-79
2022/01/03 11:03:53;;;;;;;;;;;;;;;;;;6212438;23;20385;-79
2022/01/03 11:11:49;;;;;;;;;;;;;;;;;;6123300;23;19917;-79
2022/01/03 11:14:15;;;;;;;;;;;;;;;;;;6120946;23;19916;-79
2022/01/03 11:16:42;;;;;;;;;;;;;;;;;;6123085;23;19905;-77
2022/01/03 11:19:08;;;;;;;;;;;;;;;;;;6121635;23;20344;-77
2022/01/03 11:21:36;;;;;;;;;;;;;;;;;;6098362;23;19905;-78
2022/01/03 11:24:02;;;;;;;;;;;;;;;;;;6121715;23;19905;-77
2022/01/03 11:26:33;;;;;;;;;;;;;;;;;;6121920;23;19919;-76
2022/01/03 11:29:00;;;;;;;;;;;;;;;;;;6120507;23;20004;-77
2022/01/03 11:31:26;;;;;;;;;;;;;;;;;;6122663;23;20340;-77
2022/01/03 11:33:52;;;;;;;;;;;;;;;;;;6120579;23;19913;-77
2022/01/03 11:36:18;;;;;;;;;;;;;;;;;;6123929;23;19937;-77
2022/01/03 11:38:44;;;;;;;;;;;;;;;;;;6122087;23;20000;-76
2022/01/03 11:41:10;;;;;;;;;;;;;;;;;;6122539;23;19934;-76
2022/01/03 11:43:36;;;;;;;;;;;;;;;;;;6097904;23;19905;-77
2022/01/03 11:46:02;;;;;;;;;;;;;;;;;;6176543;23;19991;-77
2022/01/03 11:48:29;;;;;;;;;;;;;;;;;;6214998;23;20219;-77
2022/01/03 11:50:55;;;;;;;;;;;;;;;;;;6212468;23;19939;-78
2022/01/03 11:53:21;;;;;;;;;;;;;;;;;;6213929;23;20342;-77
2022/01/03 11:55:46;;;;;;;;;;;;;;;;;;6210091;23;19911;-77
2022/01/03 11:58:25;;;;;;;;;;;;;;;;;;6214276;23;19904;-76
2022/01/03 12:03:39;;;;;;;;;;;;;;;;;;6213702;23;19946;-77
2022/01/03 12:06:05;;;;;;;;;;;;;;;;;;6212037;23;20326;-77
2022/01/03 12:08:33;;;;;;;;;;;;;;;;;;6213394;23;19904;-77
2022/01/03 12:11:00;;;;;;;;;;;;;;;;;;6212182;23;19920;-77
2022/01/03 12:13:26;;;;;;;;;;;;;;;;;;6212818;23;19908;-77
2022/01/03 12:15:52;;;;;;;;;;;;;;;;;;6212748;23;19971;-77
2022/01/03 12:18:18;;;;;;;;;;;;;;;;;;6213848;23;19986;-77
2022/01/03 12:20:46;;;;;;;;;;;;;;;;;;6213961;23;19979;-77
2022/01/03 12:23:13;;;;;;;;;;;;;;;;;;6212453;23;19911;-77
2022/01/03 12:25:41;;;;;;;;;;;;;;;;;;6187556;23;19919;-77
2022/01/03 12:28:08;;;;;;;;;;;;;;;;;;6213140;23;19904;-77
2022/01/03 12:30:33;;;;;;;;;;;;;;;;;;6214656;23;19928;-77
2022/01/03 12:32:59;;;;;;;;;;;;;;;;;;6213064;23;19908;-79
2022/01/03 12:35:25;;;;;;;;;;;;;;;;;;6214691;23;19903;-77
2022/01/03 12:37:51;;;;;;;;;;;;;;;;;;6212788;23;19908;-77
2022/01/03 12:40:21;;;;;;;;;;;;;;;;;;6214301;23;19939;-77
2022/01/03 12:42:53;;;;;;;;;;;;;;;;;;6212856;23;19900;-77
2022/01/03 12:45:19;;;;;;;;;;;;;;;;;;6216021;23;20340;-77
2022/01/03 12:47:45;;;;;;;;;;;;;;;;;;6215116;23;19986;-77
2022/01/03 12:50:11;;;;;;;;;;;;;;;;;;6216156;23;20337;-77
2022/01/03 12:52:37;;;;;;;;;;;;;;;;;;6213516;23;19904;-77
2022/01/03 12:55:03;;;;;;;;;;;;;;;;;;6216323;23;19986;-77
2022/01/03 12:57:29;;;;;;;;;;;;;;;;;;6188193;23;19907;-77
2022/01/03 12:59:55;;;;;;;;;;;;;;;;;;6215978;23;19987;-77
2022/01/03 13:02:21;;;;;;;;;;;;;;;;;;6215177;23;19911;-77
2022/01/03 13:04:47;;;;;;;;;;;;;;;;;;6214899;23;20280;-77
2022/01/03 13:07:13;;;;;;;;;;;;;;;;;;6214988;23;19991;-77
2022/01/03 13:09:39;;;;;;;;;;;;;;;;;;6213245;23;19916;-77
2022/01/03 13:12:05;;;;;;;;;;;;;;;;;;6215666;23;19912;-77
2022/01/03 13:14:31;;;;;;;;;;;;;;;;;;6214306;23;20006;-77
2022/01/03 13:16:58;;;;;;;;;;;;;;;;;;6215124;23;19928;-77
2022/01/03 13:19:26;;;;;;;;;;;;;;;;;;6188171;23;19987;-77
2022/01/03 13:21:52;;;;;;;;;;;;;;;;;;6215375;23;19904;-76
2022/01/03 13:24:18;;;;;;;;;;;;;;;;;;6214353;23;20595;-77
2022/01/03 13:26:44;;;;;;;;;;;;;;;;;;6215903;23;20290;-77
2022/01/03 13:29:10;;;;;;;;;;;;;;;;;;6214531;23;19915;-77
2022/01/03 13:31:36;;;;;;;;;;;;;;;;;;6216588;23;19912;-77
2022/01/03 13:34:01;;;;;;;;;;;;;;;;;;6215119;23;19904;-77
2022/01/03 13:36:27;;;;;;;;;;;;;;;;;;6214489;23;19904;-77
2022/01/03 13:38:53;;;;;;;;;;;;;;;;;;6216216;23;19969;-77
2022/01/03 13:41:19;;;;;;;;;;;;;;;;;;6214451;23;20050;-77
2022/01/03 13:43:50;;;;;;;;;;;;;;;;;;6216112;23;19908;-77
2022/01/03 13:49:12;;;;;;;;;;;;;;;;;;6215976;23;19926;-77
2022/01/03 13:51:38;;;;;;;;;;;;;;;;;;6214651;23;19903;-77
2022/01/03 13:54:04;;;;;;;;;;;;;;;;;;6186402;23;19927;-77
2022/01/03 13:56:30;;;;;;;;;;;;;;;;;;6187375;23;20301;-77
2022/01/03 13:58:56;;;;;;;;;;;;;;;;;;6216102;23;19900;-77
2022/01/03 14:01:22;;;;;;;;;;;;;;;;;;6214344;23;19911;-77
2022/01/03 14:03:48;;;;;;;;;;;;;;;;;;6215137;23;20302;-77
2022/01/03 14:06:15;;;;;;;;;;;;;;;;;;6186888;23;19914;-76
2022/01/03 14:08:41;;;;;;;;;;;;;;;;;;6214907;23;19986;-78
2022/01/03 14:11:07;;;;;;;;;;;;;;;;;;6215524;23;19939;-76
2022/01/03 14:13:36;;;;;;;;;;;;;;;;;;6185913;23;20453;-77
2022/01/03 14:16:02;;;;;;;;;;;;;;;;;;6214784;23;19919;-77
2022/01/03 14:18:28;;;;;;;;;;;;;;;;;;6213022;23;19999;-76
2022/01/03 14:20:54;;;;;;;;;;;;;;;;;;6214781;23;19958;-76
2022/01/03 14:23:20;;;;;;;;;;;;;;;;;;6212965;23;19904;-77
2022/01/03 14:25:46;;;;;;;;;;;;;;;;;;6214732;23;19908;-76
2022/01/03 14:28:12;;;;;;;;;;;;;;;;;;6212998;23;19907;-76
2022/01/03 14:30:39;;;;;;;;;;;;;;;;;;6213657;23;20242;-76
2022/01/03 14:33:05;;;;;;;;;;;;;;;;;;6214923;23;19912;-76
2022/01/03 14:35:31;;;;;;;;;;;;;;;;;;6212671;23;20445;-77
2022/01/03 14:37:57;;;;;;;;;;;;;;;;;;6215230;23;19904;-78
2022/01/03 14:40:22;;;;;;;;;;;;;;;;;;6212350;23;19914;-76
2022/01/03 14:42:48;;;;;;;;;;;;;;;;;;6214525;23;19904;-76
2022/01/03 14:45:14;;;;;;;;;;;;;;;;;;6208296;23;19908;-76
2022/01/03 14:47:41;;;;;;;;;;;;;;;;;;6185468;23;19918;-76
2022/01/03 14:50:07;;;;;;;;;;;;;;;;;;6211491;23;19911;-76
2022/01/03 14:52:33;;;;;;;;;;;;;;;;;;6213702;23;20254;-76
2022/01/03 14:54:58;;;;;;;;;;;;;;;;;;6214861;23;19931;-77
2022/01/03 14:57:27;;;;;;;;;;;;;;;;;;6213163;23;19911;-76
2022/01/03 14:59:53;;;;;;;;;;;;;;;;;;6214265;23;19911;-76
2022/01/03 15:02:19;;;;;;;;;;;;;;;;;;6212549;23;20203;-77
2022/01/03 15:04:45;;;;;;;;;;;;;;;;;;6188466;23;19912;-77
2022/01/03 15:07:11;;;;;;;;;;;;;;;;;;6212580;23;19967;-76
2022/01/03 15:09:40;;;;;;;;;;;;;;;;;;6213964;23;20694;-76
2022/01/03 15:12:06;;;;;;;;;;;;;;;;;;6185054;23;19918;-77
2022/01/03 15:14:31;;;;;;;;;;;;;;;;;;6213871;23;19907;-76
2022/01/03 15:16:57;;;;;;;;;;;;;;;;;;6213222;23;20242;-77
2022/01/03 15:19:23;;;;;;;;;;;;;;;;;;6214146;23;19904;-76
2022/01/03 15:21:49;;;;;;;;;;;;;;;;;;6213286;23;19904;-76
2022/01/03 15:24:15;;;;;;;;;;;;;;;;;;6213819;23;20338;-76
2022/01/03 15:26:41;;;;;;;;;;;;;;;;;;6214636;23;19958;-77
2022/01/03 15:29:07;;;;;;;;;;;;;;;;;;6212770;23;19904;-76
2022/01/03 15:31:33;;;;;;;;;;;;;;;;;;6213434;23;19947;-76
2022/01/03 15:33:59;;;;;;;;;;;;;;;;;;6212174;23;19907;-76
2022/01/03 15:36:25;;;;;;;;;;;;;;;;;;6213449;23;19908;-76
2022/01/03 15:38:50;;;;;;;;;;;;;;;;;;6213035;23;19950;-76
2022/01/03 15:41:16;;;;;;;;;;;;;;;;;;6214133;23;19908;-76
2022/01/03 15:43:42;;;;;;;;;;;;;;;;;;6212648;23;19922;-76
2022/01/03 15:46:08;;;;;;;;;;;;;;;;;;6211461;23;20222;-76
2022/01/03 15:48:34;;;;;;;;;;;;;;;;;;6213104;23;20286;-76
2022/01/03 15:51:01;;;;;;;;;;;;;;;;;;6213141;23;19914;-76
2022/01/03 15:53:27;;;;;;;;;;;;;;;;;;6213550;23;19904;-76
2022/01/03 15:55:54;;;;;;;;;;;;;;;;;;6211785;23;19910;-76
2022/01/03 15:58:19;;;;;;;;;;;;;;;;;;6212646;23;19955;-76
2022/01/03 16:00:46;;;;;;;;;;;;;;;;;;6212209;23;19912;-76
2022/01/03 16:03:12;;;;;;;;;;;;;;;;;;6213604;23;20330;-78
2022/01/03 16:05:37;;;;;;;;;;;;;;;;;;6212149;23;19911;-77
2022/01/03 16:08:03;;;;;;;;;;;;;;;;;;6213971;23;19910;-76
2022/01/03 16:10:29;;;;;;;;;;;;;;;;;;6186420;23;19970;-76
2022/01/03 16:12:55;;;;;;;;;;;;;;;;;;6214100;23;19912;-77
2022/01/03 16:15:21;;;;;;;;;;;;;;;;;;6183874;23;20322;-76
2022/01/03 16:17:47;;;;;;;;;;;;;;;;;;6214189;23;20380;-77
2022/01/03 16:20:13;;;;;;;;;;;;;;;;;;6213981;23;19907;-77
2022/01/03 16:22:39;;;;;;;;;;;;;;;;;;6187610;23;19908;-78
2022/01/03 16:25:05;;;;;;;;;;;;;;;;;;6214516;23;19915;-77
2022/01/03 16:27:31;;;;;;;;;;;;;;;;;;6213034;23;19908;-77
2022/01/03 16:29:57;;;;;;;;;;;;;;;;;;6188767;23;19983;-77
2022/01/03 16:32:23;;;;;;;;;;;;;;;;;;6211418;23;19946;-77
2022/01/03 16:34:49;;;;;;;;;;;;;;;;;;6215345;23;20326;-77
2022/01/03 16:37:15;;;;;;;;;;;;;;;;;;6214927;23;20850;-77
2022/01/03 16:39:41;;;;;;;;;;;;;;;;;;6214072;23;19904;-76
2022/01/03 16:42:10;;;;;;;;;;;;;;;;;;6215907;23;20245;-77
2022/01/03 16:44:36;;;;;;;;;;;;;;;;;;6214469;23;19908;-76
2022/01/03 16:47:02;;;;;;;;;;;;;;;;;;6216287;23;19964;-77
2022/01/03 16:49:28;;;;;;;;;;;;;;;;;;6213937;23;20322;-77
2022/01/03 16:51:54;;;;;;;;;;;;;;;;;;6216288;23;19904;-76
2022/01/03 16:54:20;;;;;;;;;;;;;;;;;;6214072;23;19999;-77
2022/01/03 16:56:46;;;;;;;;;;;;;;;;;;6216050;23;19919;-76
2022/01/03 16:59:12;;;;;;;;;;;;;;;;;;6213700;23;19915;-76
2022/01/03 17:01:38;;;;;;;;;;;;;;;;;;6215652;23;19904;-76